Time;durP1;ratioP1;P1;durP2;ratioP2;P2;SDS_P1;SDS_P2;PMS_P1;PMS_P2;Temp;Humidity;BMP_temperature;BMP_pressure;BME280_temperature;BME280_humidity;BME280_pressure;Samples;Min_cycle;Max_cycle;Signal;HPM_P1;HPM_P2
2022/10/11 00:01:59;;;;;;;4.30;1.00;;;19.60;98.80;;;;;;5078439;28;20366;-87
2022/10/11 00:04:26;;;;;;;2.92;0.98;;;19.80;97.70;;;;;;5079464;28;20393;-88
2022/10/11 00:06:56;;;;;;;3.42;0.93;;;19.80;97.10;;;;;;5078914;28;20396;-87
2022/10/11 00:09:23;;;;;;;2.15;0.90;;;19.70;97.20;;;;;;5081339;28;20397;-87
2022/10/11 00:11:50;;;;;;;4.20;1.00;;;19.60;97.40;;;;;;5081942;28;20386;-87
2022/10/11 00:14:17;;;;;;;4.90;1.10;;;19.40;98.90;;;;;;5082349;28;20408;-88
2022/10/11 00:16:44;;;;;;;2.47;0.90;;;19.30;98.90;;;;;;5082113;28;20370;-87
2022/10/11 00:19:13;;;;;;;3.43;1.00;;;19.40;98.40;;;;;;5042169;28;20879;-88
2022/10/11 00:22:00;;;;;;;5.73;1.10;;;19.30;98.70;;;;;;5057694;28;20382;-86
2022/10/11 00:24:27;;;;;;;5.68;1.23;;;19.40;97.50;;;;;;5059359;28;20364;-88
2022/10/11 00:26:54;;;;;;;3.13;1.10;;;19.10;97.90;;;;;;5072923;28;20507;-88
2022/10/11 00:29:21;;;;;;;6.13;1.10;;;19.00;97.90;;;;;;5078135;28;20385;-86
2022/10/11 00:31:48;;;;;;;3.65;1.00;;;18.90;98.50;;;;;;5078802;28;20374;-88
2022/10/11 00:34:16;;;;;;;3.95;1.00;;;18.70;98.90;;;;;;5077886;28;20398;-88
2022/10/11 00:36:44;;;;;;;2.63;1.10;;;18.70;99.10;;;;;;5078043;28;20368;-88
2022/10/11 00:39:12;;;;;;;5.13;1.30;;;18.80;99.80;;;;;;5077536;28;20386;-87
2022/10/11 00:41:39;;;;;;;5.68;1.33;;;18.70;99.90;;;;;;5075439;28;20425;-88
2022/10/11 00:44:24;;;;;;;4.22;1.38;;;18.70;99.90;;;;;;5077718;28;20377;-89
2022/10/11 00:47:09;;;;;;;4.65;1.20;;;18.70;99.90;;;;;;5076441;28;20408;-88
2022/10/11 00:49:43;;;;;;;5.00;1.27;;;18.60;99.90;;;;;;5076556;28;20400;-88
2022/10/11 00:52:30;;;;;;;4.38;1.45;;;18.50;99.90;;;;;;5050563;28;20645;-88
2022/10/11 00:55:13;;;;;;;4.68;1.38;;;18.40;99.90;;;;;;5072618;28;20374;-88
2022/10/11 00:57:43;;;;;;;4.75;1.27;;;18.40;99.90;;;;;;5075010;28;20774;-88
2022/10/11 01:00:13;;;;;;;4.00;1.25;;;18.30;99.90;;;;;;5073589;28;20374;-88
2022/10/11 01:02:41;;;;;;;3.63;1.10;;;18.20;99.90;;;;;;5073408;28;20370;-87
2022/10/11 01:05:12;;;;;;;4.95;1.30;;;18.30;99.90;;;;;;5055347;28;20382;-88
2022/10/11 01:07:39;;;;;;;4.72;1.42;;;18.30;99.90;;;;;;5073628;28;20374;-88
2022/10/11 01:10:07;;;;;;;6.07;1.30;;;18.50;99.90;;;;;;5073514;28;20439;-89
2022/10/11 01:12:34;;;;;;;5.63;1.30;;;18.70;99.90;;;;;;5073468;28;20389;-88
2022/10/11 01:15:19;;;;;;;4.70;1.20;;;18.80;99.90;;;;;;5073546;28;20378;-88
2022/10/11 01:17:58;;;;;;;3.70;1.30;;;19.00;99.90;;;;;;5062208;28;20409;-87
2022/10/11 01:20:34;;;;;;;5.47;1.20;;;19.30;99.90;;;;;;5054750;28;20862;-89
2022/10/11 01:23:40;;;;;;;4.07;1.60;;;19.60;99.90;;;;;;5073275;28;20971;-88
2022/10/11 01:26:35;;;;;;;3.50;1.30;;;19.90;99.90;;;;;;5073502;28;20461;-87
2022/10/11 01:29:28;;;;;;;5.10;1.70;;;20.30;99.90;;;;;;5072971;28;20428;-89
2022/10/11 01:32:20;;;;;;;5.97;1.70;;;20.70;98.70;;;;;;5058547;28;20447;-88
2022/10/11 01:35:09;;;;;;;7.67;1.90;;;21.10;97.80;;;;;;4990940;28;20483;-87
2022/10/11 01:37:54;;;;;;;6.40;1.40;;;21.30;97.50;;;;;;4991188;28;20416;-87
2022/10/11 01:40:33;;;;;;;4.20;1.13;;;21.20;97.10;;;;;;4974905;28;20392;-87
2022/10/11 01:43:01;;;;;;;2.67;1.10;;;21.00;95.50;;;;;;4991014;28;20436;-89
2022/10/11 01:45:30;;;;;;;3.33;1.05;;;20.60;96.30;;;;;;4991640;28;20400;-88
2022/10/11 01:48:11;;;;;;;5.65;1.27;;;20.30;96.60;;;;;;4990962;28;20936;-88
2022/10/11 01:50:40;;;;;;;5.07;1.20;;;20.10;97.90;;;;;;4971618;28;20422;-88
2022/10/11 01:53:18;;;;;;;5.53;1.30;;;19.90;97.90;;;;;;4986624;28;20385;-87
2022/10/11 01:55:55;;;;;;;3.38;1.10;;;19.50;99.00;;;;;;4991418;28;20416;-88
2022/10/11 01:58:31;;;;;;;5.53;1.30;;;19.20;99.60;;;;;;4991007;28;20785;-87
2022/10/11 02:01:23;;;;;;;4.25;1.25;;;18.90;99.90;;;;;;4974687;28;20484;-88
2022/10/11 02:04:03;;;;;;;4.35;1.30;;;18.80;99.90;;;;;;4990512;28;20877;-88
2022/10/11 02:06:46;;;;;;;4.07;1.17;;;18.80;99.90;;;;;;4991309;28;21148;-88
2022/10/11 02:09:29;;;;;;;2.03;1.00;;;18.70;99.90;;;;;;4990781;28;20411;-88
2022/10/11 02:12:04;;;;;;;3.65;1.10;;;18.80;99.50;;;;;;5028040;28;20391;-87
2022/10/11 02:14:36;;;;;;;2.97;1.10;;;18.70;99.50;;;;;;5072184;28;20396;-86
2022/10/11 02:17:16;;;;;;;4.22;1.30;;;18.60;99.70;;;;;;5072251;28;20877;-88
2022/10/11 02:19:50;;;;;;;3.92;1.20;;;18.50;99.90;;;;;;5072237;28;20373;-88
2022/10/11 02:22:29;;;;;;;4.20;1.30;;;18.40;99.90;;;;;;5072565;28;20397;-88
2022/10/11 02:24:59;;;;;;;3.65;1.20;;;18.40;99.90;;;;;;5054504;28;20734;-88
2022/10/11 02:27:29;;;;;;;5.15;1.13;;;18.40;99.90;;;;;;5072902;28;20377;-87
2022/10/11 02:29:59;;;;;;;4.63;1.20;;;18.40;99.90;;;;;;5076249;28;20424;-86
2022/10/11 02:32:28;;;;;;;4.20;1.20;;;18.50;99.90;;;;;;5085337;28;20453;-87
2022/10/11 02:34:59;;;;;;;3.60;1.10;;;18.80;99.90;;;;;;5084292;28;20769;-84
2022/10/11 02:37:41;;;;;;;3.75;1.05;;;19.10;99.70;;;;;;5059997;28;20356;-87
2022/10/11 02:40:16;;;;;;;4.35;1.20;;;19.60;99.40;;;;;;5058216;28;20415;-87
2022/10/11 02:43:00;;;;;;;4.10;1.40;;;20.00;97.00;;;;;;5071973;28;20428;-87
2022/10/11 02:45:51;;;;;;;3.92;1.02;;;20.00;96.30;;;;;;5059962;28;20362;-88
2022/10/11 02:48:19;;;;;;;4.03;1.20;;;20.10;96.30;;;;;;5071438;28;20866;-87
2022/10/11 02:50:46;;;;;;;3.92;1.13;;;20.10;96.00;;;;;;5071624;28;20406;-89
2022/10/11 02:53:13;;;;;;;3.58;1.23;;;20.20;95.20;;;;;;5071430;28;20374;-86
2022/10/11 02:55:40;;;;;;;4.07;1.10;;;20.20;95.20;;;;;;5071647;28;21058;-88
2022/10/11 02:58:07;;;;;;;3.78;1.10;;;20.10;95.00;;;;;;5071654;28;20896;-87
2022/10/11 03:00:34;;;;;;;2.95;1.05;;;19.90;95.50;;;;;;5064553;28;20533;-87
2022/10/11 03:03:01;;;;;;;5.43;1.30;;;19.70;95.80;;;;;;5064634;28;20755;-88
2022/10/11 03:05:28;;;;;;;3.80;1.20;;;19.70;96.30;;;;;;5036718;28;20390;-87
2022/10/11 03:07:55;;;;;;;3.08;1.20;;;19.70;96.50;;;;;;5063046;28;20453;-88
2022/10/11 03:10:22;;;;;;;3.03;1.10;;;19.60;96.30;;;;;;5065474;28;20413;-88
2022/10/11 03:12:49;;;;;;;3.85;1.20;;;19.70;96.40;;;;;;5053018;28;20757;-87
2022/10/11 03:15:16;;;;;;;5.82;1.20;;;19.80;96.30;;;;;;5070652;28;20408;-87
2022/10/11 03:17:43;;;;;;;2.93;1.10;;;19.90;96.90;;;;;;5055789;28;20387;-89
2022/10/11 03:20:10;;;;;;;7.77;1.27;;;20.10;96.70;;;;;;5061199;28;20384;-89
2022/10/11 03:22:37;;;;;;;3.00;1.10;;;20.10;96.10;;;;;;5072079;28;20366;-87
2022/10/11 03:25:04;;;;;;;4.03;1.17;;;20.20;95.70;;;;;;5071344;28;20374;-89
2022/10/11 03:27:32;;;;;;;3.85;1.20;;;20.30;95.80;;;;;;5071142;28;20858;-85
2022/10/11 03:30:00;;;;;;;25.73;1.90;;;20.30;95.00;;;;;;5070826;28;20402;-86
2022/10/11 03:32:28;;;;;;;10.55;1.42;;;20.40;95.30;;;;;;5058838;28;20383;-84
2022/10/11 03:34:55;;;;;;;3.45;1.10;;;20.40;95.00;;;;;;5073787;28;20385;-86
2022/10/11 03:37:22;;;;;;;9.45;1.48;;;20.60;95.00;;;;;;5063078;28;20938;-85
2022/10/11 03:39:49;;;;;;;13.23;2.58;;;20.70;94.40;;;;;;5063435;28;20490;-89
2022/10/11 03:42:16;;;;;;;2.53;1.10;;;20.70;94.40;;;;;;5060405;28;20375;-88
2022/10/11 03:44:43;;;;;;;3.45;1.05;;;20.70;93.80;;;;;;5069970;28;21027;-88
2022/10/11 03:47:11;;;;;;;2.75;1.20;;;20.90;93.40;;;;;;5052879;28;20424;-89
2022/10/11 03:49:38;;;;;;;2.47;1.00;;;21.10;93.20;;;;;;5051439;28;20419;-90
2022/10/11 03:52:05;;;;;;;2.95;1.10;;;21.10;92.30;;;;;;5061410;28;20801;-90
2022/10/11 03:54:32;;;;;;;2.50;1.10;;;21.00;93.10;;;;;;5060108;28;21024;-88
2022/10/11 03:56:59;;;;;;;2.47;1.10;;;21.20;92.60;;;;;;5069606;28;20758;-88
2022/10/11 03:59:26;;;;;;;2.65;1.10;;;21.50;91.40;;;;;;5070440;28;20469;-89
2022/10/11 04:01:53;;;;;;;2.38;1.20;;;21.90;91.20;;;;;;5071345;28;20382;-90
2022/10/11 04:04:20;;;;;;;2.28;1.13;;;22.60;85.60;;;;;;5071964;28;20375;-89
2022/10/11 04:06:47;;;;;;;3.43;1.00;;;22.30;84.90;;;;;;5070592;28;20906;-89
2022/10/11 04:09:14;;;;;;;3.45;1.10;;;22.00;87.30;;;;;;5069616;28;20401;-88
2022/10/11 04:11:41;;;;;;;3.90;1.00;;;22.00;88.20;;;;;;5066244;28;20823;-90
2022/10/11 04:14:08;;;;;;;2.55;1.20;;;22.20;85.70;;;;;;5070199;28;20390;-89
2022/10/11 04:16:37;;;;;;;2.72;1.10;;;21.90;87.50;;;;;;5050964;28;20394;-89
2022/10/11 04:19:05;;;;;;;2.58;1.25;;;21.80;87.70;;;;;;5070700;28;20431;-89
2022/10/11 04:21:32;;;;;;;4.60;1.30;;;21.40;88.10;;;;;;5070637;28;20374;-89
2022/10/11 04:23:59;;;;;;;3.25;1.08;;;20.80;89.10;;;;;;5070252;28;20461;-89
2022/10/11 04:26:26;;;;;;;3.60;1.20;;;20.80;91.40;;;;;;5070920;28;20382;-89
2022/10/11 04:28:53;;;;;;;3.42;1.33;;;20.80;91.10;;;;;;5072377;28;20378;-88
2022/10/11 04:31:20;;;;;;;3.15;1.23;;;21.10;90.40;;;;;;5056772;28;20412;-89
2022/10/11 04:33:47;;;;;;;2.65;1.15;;;21.20;90.40;;;;;;5058040;28;20740;-88
2022/10/11 04:36:14;;;;;;;3.28;1.10;;;21.10;90.10;;;;;;5076985;28;20434;-90
2022/10/11 04:38:41;;;;;;;2.90;1.20;;;20.80;90.40;;;;;;5073651;28;20378;-89
2022/10/11 04:41:10;;;;;;;3.47;1.20;;;20.70;91.30;;;;;;5078127;28;20363;-88
2022/10/11 04:43:37;;;;;;;3.23;1.20;;;20.70;91.20;;;;;;5088702;28;20449;-88
2022/10/11 04:46:05;;;;;;;3.00;1.10;;;20.80;90.80;;;;;;5098083;28;20480;-87
2022/10/11 04:48:33;;;;;;;3.10;1.10;;;20.90;90.50;;;;;;5085498;28;20385;-88
2022/10/11 04:51:00;;;;;;;5.50;1.13;;;21.00;91.20;;;;;;5085942;28;20474;-88
2022/10/11 04:53:29;;;;;;;2.50;1.20;;;21.10;90.50;;;;;;5092704;28;20416;-87
2022/10/11 04:56:04;;;;;;;2.75;1.10;;;21.10;90.80;;;;;;5090483;28;20374;-89
2022/10/11 04:58:33;;;;;;;3.37;1.10;;;20.80;91.20;;;;;;5070706;28;20798;-89
2022/10/11 05:01:01;;;;;;;3.63;1.05;;;20.60;91.60;;;;;;5090299;28;20390;-88
2022/10/11 05:03:28;;;;;;;3.17;1.20;;;20.60;92.20;;;;;;5084986;28;20378;-88
2022/10/11 05:05:55;;;;;;;4.40;1.17;;;20.70;91.80;;;;;;5081901;28;20378;-88
2022/10/11 05:08:22;;;;;;;3.33;1.20;;;20.70;91.70;;;;;;5092469;28;20392;-87
2022/10/11 05:11:00;;;;;;;3.17;1.20;;;20.70;91.70;;;;;;5074134;28;20402;-88
2022/10/11 05:13:29;;;;;;;2.67;1.10;;;20.70;92.20;;;;;;5092826;28;20394;-86
2022/10/11 05:15:57;;;;;;;3.22;1.17;;;20.70;92.20;;;;;;5083797;28;20861;-88
2022/10/11 05:18:25;;;;;;;3.35;1.10;;;20.60;91.70;;;;;;5090770;28;20381;-87
2022/10/11 05:21:03;;;;;;;3.83;1.17;;;20.60;92.30;;;;;;5091483;28;20378;-88
2022/10/11 05:23:31;;;;;;;2.92;1.10;;;20.50;92.00;;;;;;5073955;28;20381;-88
2022/10/11 05:25:59;;;;;;;3.42;1.20;;;20.40;92.60;;;;;;5059841;28;20727;-87
2022/10/11 05:28:26;;;;;;;3.20;1.10;;;20.50;92.10;;;;;;5060899;28;20418;-85
2022/10/11 05:30:53;;;;;;;3.65;1.13;;;20.60;91.70;;;;;;5067888;28;20406;-87
2022/10/11 05:33:21;;;;;;;3.10;1.10;;;20.60;91.90;;;;;;5052413;28;20401;-85
2022/10/11 05:35:48;;;;;;;3.85;1.27;;;20.60;92.10;;;;;;5073376;28;20369;-88
2022/10/11 05:38:15;;;;;;;3.15;1.17;;;20.70;92.30;;;;;;5072530;28;20745;-88
2022/10/11 05:40:42;;;;;;;3.03;1.10;;;21.00;91.10;;;;;;5072419;28;20374;-87
2022/10/11 05:43:09;;;;;;;2.78;1.00;;;21.20;90.80;;;;;;5073008;28;21238;-87
2022/10/11 05:45:40;;;;;;;3.13;0.98;;;22.10;88.30;;;;;;5073897;28;20382;-85
2022/10/11 05:48:08;;;;;;;3.22;1.10;;;23.30;83.10;;;;;;5073384;28;20378;-86
2022/10/11 05:50:36;;;;;;;2.47;1.00;;;24.00;79.10;;;;;;5073147;28;20491;-88
2022/10/11 05:53:04;;;;;;;2.70;1.10;;;24.90;76.60;;;;;;5059507;28;20976;-87
2022/10/11 05:55:36;;;;;;;4.25;1.13;;;25.40;73.30;;;;;;5072326;28;20390;-87
2022/10/11 05:58:03;;;;;;;2.28;1.00;;;25.90;68.60;;;;;;5072603;28;20366;-88
2022/10/11 06:00:30;;;;;;;3.00;1.00;;;25.70;67.20;;;;;;5059070;28;20799;-86
2022/10/11 06:02:57;;;;;;;3.13;1.10;;;25.70;67.40;;;;;;5060226;28;20509;-87
2022/10/11 06:05:24;;;;;;;2.47;1.05;;;26.00;65.80;;;;;;5053273;28;20953;-87
2022/10/11 06:07:51;;;;;;;1.90;0.93;;;26.20;64.40;;;;;;5076596;28;20484;-88
2022/10/11 06:10:18;;;;;;;2.13;1.05;;;26.40;63.20;;;;;;5074320;28;20409;-87
2022/10/11 06:12:45;;;;;;;2.95;1.10;;;26.30;62.00;;;;;;5071156;28;20403;-86
2022/10/11 06:15:13;;;;;;;2.90;1.08;;;26.00;63.10;;;;;;5066142;28;20386;-89
2022/10/11 06:17:40;;;;;;;2.33;1.08;;;26.10;62.00;;;;;;5035142;28;20387;-86
2022/10/11 06:20:08;;;;;;;3.50;1.00;;;25.80;62.10;;;;;;5065958;28;20384;-85
2022/10/11 06:22:35;;;;;;;3.15;1.10;;;25.10;63.00;;;;;;5058043;28;20388;-86
2022/10/11 06:25:02;;;;;;;3.20;1.10;;;24.10;65.00;;;;;;5070318;28;20389;-86
2022/10/11 06:27:29;;;;;;;2.70;1.00;;;23.90;67.40;;;;;;5062393;28;20429;-86
2022/10/11 06:29:56;;;;;;;3.67;1.30;;;24.00;66.90;;;;;;5071707;28;20796;-88
2022/10/11 06:32:23;;;;;;;3.05;1.13;;;23.50;66.70;;;;;;5071884;28;20431;-87
2022/10/11 06:34:50;;;;;;;2.67;1.10;;;22.70;69.40;;;;;;5071539;28;20386;-87
2022/10/11 06:37:17;;;;;;;3.22;1.10;;;21.80;71.90;;;;;;5071852;28;20846;-89
2022/10/11 06:39:44;;;;;;;2.80;1.20;;;21.30;74.70;;;;;;5071707;28;20453;-88
2022/10/11 06:42:12;;;;;;;2.80;1.10;;;20.90;76.60;;;;;;5074856;28;20435;-83
2022/10/11 06:44:39;;;;;;;3.50;1.30;;;20.80;78.50;;;;;;5073053;28;20421;-86
2022/10/11 06:47:13;;;;;;;2.20;1.20;;;20.60;78.20;;;;;;5074619;28;20869;-86
2022/10/11 06:49:40;;;;;;;2.70;1.10;;;20.30;80.60;;;;;;5058065;28;20735;-87
2022/10/11 06:52:08;;;;;;;4.18;1.27;;;19.90;83.20;;;;;;5076832;28;20377;-87
2022/10/11 06:54:35;;;;;;;3.00;1.10;;;19.70;84.90;;;;;;5075589;28;20382;-87
2022/10/11 06:57:02;;;;;;;3.40;1.25;;;19.40;86.90;;;;;;5072730;28;20370;-85
2022/10/11 06:59:29;;;;;;;2.85;1.23;;;19.30;89.30;;;;;;5070397;28;20373;-86
2022/10/11 07:01:56;;;;;;;3.28;1.10;;;19.30;89.70;;;;;;5070494;28;20471;-84
2022/10/11 07:04:23;;;;;;;2.67;1.20;;;19.20;90.70;;;;;;5070395;28;20445;-83
2022/10/11 07:06:50;;;;;;;6.75;1.30;;;19.10;91.30;;;;;;5051984;28;20385;-84
2022/10/11 07:09:17;;;;;;;6.00;1.90;;;19.10;91.80;;;;;;5052408;28;20390;-88
2022/10/11 07:11:46;;;;;;;5.15;1.50;;;19.10;92.00;;;;;;5070461;28;20371;-86
2022/10/11 07:14:13;;;;;;;4.07;1.33;;;19.10;91.70;;;;;;5062738;28;20405;-84
2022/10/11 07:16:40;;;;;;;4.45;1.30;;;19.00;92.40;;;;;;5070455;28;20382;-86
2022/10/11 07:19:07;;;;;;;3.72;1.30;;;18.90;92.70;;;;;;5069861;28;20778;-85
2022/10/11 07:21:35;;;;;;;3.00;1.50;;;18.80;92.60;;;;;;5070356;28;20432;-85
2022/10/11 07:24:02;;;;;;;5.03;2.00;;;18.70;93.20;;;;;;5059679;28;20838;-85
2022/10/11 07:26:30;;;;;;;4.97;1.70;;;18.70;93.60;;;;;;5071128;28;20374;-82
2022/10/11 07:28:57;;;;;;;3.47;1.48;;;18.60;94.00;;;;;;5069924;28;20377;-85
2022/10/11 07:31:25;;;;;;;3.63;1.50;;;18.40;94.10;;;;;;5069544;28;20398;-85
2022/10/11 07:33:52;;;;;;;2.40;1.30;;;18.20;94.90;;;;;;5070793;28;20382;-86
2022/10/11 07:36:21;;;;;;;3.60;1.40;;;18.10;95.30;;;;;;5067716;28;20499;-85
2022/10/11 07:38:49;;;;;;;3.53;1.30;;;17.80;95.70;;;;;;5054852;28;21182;-86
2022/10/11 07:41:16;;;;;;;2.67;1.30;;;17.70;96.90;;;;;;5044326;28;20432;-86
2022/10/11 07:43:45;;;;;;;3.33;1.42;;;17.60;97.90;;;;;;5070771;28;20362;-88
2022/10/11 07:46:12;;;;;;;3.38;1.38;;;17.50;98.40;;;;;;5067810;28;20390;-88
2022/10/11 07:48:39;;;;;;;3.38;1.30;;;17.30;99.10;;;;;;5071143;28;20423;-88
2022/10/11 07:51:09;;;;;;;3.85;1.27;;;17.30;99.70;;;;;;5070180;28;20406;-87
2022/10/11 07:53:45;;;;;;;4.33;1.47;;;17.20;99.80;;;;;;5052204;28;20741;-88
2022/10/11 07:56:14;;;;;;;5.10;1.58;;;17.30;99.90;;;;;;5070514;28;20439;-80
2022/10/11 07:58:42;;;;;;;3.65;1.50;;;17.20;99.90;;;;;;5070834;28;20373;-90
2022/10/11 08:01:10;;;;;;;2.67;1.40;;;17.10;99.90;;;;;;5071137;28;20473;-86
2022/10/11 08:03:38;;;;;;;3.07;1.47;;;17.10;99.90;;;;;;5072958;28;20385;-86
2022/10/11 08:06:08;;;;;;;4.78;1.48;;;17.00;99.90;;;;;;5075590;28;20389;-86
2022/10/11 08:08:35;;;;;;;2.88;1.50;;;17.00;99.90;;;;;;5075289;28;20849;-86
2022/10/11 08:11:03;;;;;;;3.60;1.40;;;17.00;99.90;;;;;;5075042;28;20397;-86
2022/10/11 08:13:30;;;;;;;5.00;1.40;;;17.00;99.90;;;;;;5074663;28;20400;-85
2022/10/11 08:15:58;;;;;;;2.97;1.40;;;17.30;99.90;;;;;;5063087;28;20390;-88
2022/10/11 08:18:25;;;;;;;3.28;1.40;;;17.00;99.90;;;;;;5058070;28;20475;-87
2022/10/11 08:20:52;;;;;;;2.70;1.35;;;16.90;99.90;;;;;;5071456;28;20760;-87
2022/10/11 08:23:19;;;;;;;4.03;1.60;;;16.90;99.90;;;;;;5071674;28;20374;-87
2022/10/11 08:25:48;;;;;;;3.53;1.50;;;16.80;99.90;;;;;;5069366;28;20424;-87
2022/10/11 08:28:19;;;;;;;3.70;1.60;;;16.90;99.90;;;;;;5085778;28;20421;-86
2022/10/11 08:30:50;;;;;;;3.45;1.40;;;16.90;99.90;;;;;;5075368;28;20401;-86
2022/10/11 08:33:18;;;;;;;3.53;1.50;;;16.90;99.90;;;;;;5075556;28;20409;-86
2022/10/11 08:35:46;;;;;;;3.30;1.45;;;16.80;99.90;;;;;;5074829;28;20806;-87
2022/10/11 08:38:13;;;;;;;3.50;1.38;;;16.90;99.90;;;;;;5074395;28;20417;-87
2022/10/11 08:40:58;;;;;;;2.53;1.50;;;16.90;99.70;;;;;;5073057;28;20385;-87
2022/10/11 08:43:49;;;;;;;3.17;1.40;;;16.80;99.30;;;;;;5073845;28;20370;-85
2022/10/11 08:46:26;;;;;;;4.30;1.63;;;16.70;98.90;;;;;;5055621;28;20412;-85
2022/10/11 08:48:57;;;;;;;4.53;1.90;;;16.70;98.90;;;;;;5063879;28;20437;-86
2022/10/11 08:51:26;;;;;;;2.95;1.42;;;16.60;99.00;;;;;;5074706;28;20410;-87
2022/10/11 08:53:59;;;;;;;3.10;1.30;;;16.60;99.00;;;;;;5067846;28;20370;-85
2022/10/11 08:56:28;;;;;;;2.85;1.33;;;16.50;99.10;;;;;;5070182;28;20438;-87
2022/10/11 08:59:11;;;;;;;2.83;1.30;;;16.50;99.50;;;;;;5075093;28;20374;-85
2022/10/11 09:01:45;;;;;;;3.13;1.30;;;16.50;99.30;;;;;;5074848;28;20393;-86
2022/10/11 09:04:17;;;;;;;3.72;1.38;;;16.50;99.40;;;;;;5066327;28;20379;-88
2022/10/11 09:07:03;;;;;;;2.40;1.20;;;16.50;99.50;;;;;;5052847;28;20386;-85
2022/10/11 09:09:54;;;;;;;2.40;1.30;;;16.40;99.70;;;;;;5077996;28;20390;-86
2022/10/11 09:12:40;;;;;;;4.47;1.50;;;16.50;99.70;;;;;;5049105;28;20432;-86
2022/10/11 09:15:19;;;;;;;2.97;1.40;;;16.40;99.90;;;;;;5072691;28;20484;-86
2022/10/11 09:18:03;;;;;;;3.38;1.50;;;16.40;99.90;;;;;;5095267;28;20394;-87
2022/10/11 09:20:45;;;;;;;6.03;1.30;;;16.40;99.90;;;;;;5077725;28;20394;-87
2022/10/11 09:23:12;;;;;;;2.60;1.40;;;16.30;99.90;;;;;;5081096;28;20371;-87
2022/10/11 09:25:57;;;;;;;2.72;1.30;;;16.30;99.90;;;;;;5077095;28;20409;-87
2022/10/11 09:28:30;;;;;;;3.78;1.30;;;16.30;99.90;;;;;;5064236;28;20376;-88
2022/10/11 09:30:58;;;;;;;2.58;1.40;;;16.30;99.90;;;;;;5056480;28;20402;-88
2022/10/11 09:33:34;;;;;;;2.25;1.40;;;16.20;99.90;;;;;;5074405;28;20373;-88
2022/10/11 09:36:11;;;;;;;3.33;1.40;;;16.20;99.90;;;;;;5080859;28;20455;-87
2022/10/11 09:38:50;;;;;;;4.00;1.30;;;16.20;99.90;;;;;;5074108;28;20389;-87
2022/10/11 09:41:27;;;;;;;4.07;1.40;;;16.20;99.90;;;;;;5088199;28;20482;-88
2022/10/11 09:43:54;;;;;;;4.07;1.47;;;16.20;99.90;;;;;;5072870;28;20382;-88
2022/10/11 09:46:36;;;;;;;5.23;1.40;;;16.20;99.90;;;;;;5073024;28;20423;-87
2022/10/11 09:49:17;;;;;;;2.65;1.38;;;16.20;99.90;;;;;;5072853;28;20896;-87
2022/10/11 09:52:05;;;;;;;4.63;1.37;;;16.10;99.90;;;;;;5054734;28;20428;-86
2022/10/11 09:54:44;;;;;;;3.55;1.50;;;16.10;99.90;;;;;;5069063;28;20376;-87
2022/10/11 09:57:27;;;;;;;2.60;1.40;;;16.10;99.90;;;;;;5062638;28;20394;-87
2022/10/11 10:00:07;;;;;;;3.45;1.60;;;16.00;99.90;;;;;;5070936;28;20382;-88
2022/10/11 10:02:46;;;;;;;3.50;1.50;;;16.00;99.90;;;;;;5069685;28;20546;-87
2022/10/11 10:05:17;;;;;;;4.57;1.40;;;16.00;99.90;;;;;;5058590;28;20394;-87
2022/10/11 10:08:08;;;;;;;2.50;1.30;;;16.00;99.90;;;;;;5073401;28;20440;-88
2022/10/11 10:10:50;;;;;;;3.42;1.40;;;16.00;99.90;;;;;;5072808;28;20402;-87
2022/10/11 10:13:36;;;;;;;4.03;1.40;;;16.10;99.90;;;;;;5072554;28;20435;-87
2022/10/11 10:16:06;;;;;;;4.30;1.45;;;16.10;99.90;;;;;;5071072;28;20419;-87
2022/10/11 10:18:36;;;;;;;4.97;1.40;;;16.10;99.90;;;;;;5072583;28;20445;-86
2022/10/11 10:21:08;;;;;;;4.40;1.40;;;16.00;99.90;;;;;;5072189;28;20381;-88
2022/10/11 10:23:36;;;;;;;2.10;1.50;;;15.90;99.90;;;;;;5072688;28;20378;-87
2022/10/11 10:26:21;;;;;;;4.20;1.30;;;16.00;99.90;;;;;;5072482;28;20381;-88
2022/10/11 10:29:01;;;;;;;4.80;1.47;;;16.00;99.90;;;;;;5048430;28;20433;-87
2022/10/11 10:31:49;;;;;;;4.80;1.50;;;16.00;99.90;;;;;;5053416;28;20398;-87
2022/10/11 10:34:22;;;;;;;5.53;1.60;;;15.90;99.90;;;;;;5072099;28;20466;-87
2022/10/11 10:37:26;;;;;;;3.30;1.50;;;15.90;99.90;;;;;;5054621;28;20524;-87
2022/10/11 10:40:04;;;;;;;3.97;1.77;;;15.90;99.90;;;;;;5072061;28;20390;-87
2022/10/11 10:42:32;;;;;;;3.85;1.67;;;15.90;99.90;;;;;;5054566;28;20386;-87
2022/10/11 10:45:00;;;;;;;3.03;1.60;;;15.90;99.90;;;;;;5054301;28;20385;-87
2022/10/11 10:48:21;;;;;;;3.88;1.70;;;15.90;99.90;;;;;;5072172;28;20378;-87
2022/10/11 10:50:50;;;;;;;5.65;1.80;;;15.80;99.90;;;;;;5001229;28;20425;-87
2022/10/11 10:53:30;;;;;;;5.32;1.80;;;15.80;99.90;;;;;;5010074;28;20383;-88
2022/10/11 10:56:52;;;;;;;4.07;1.67;;;15.80;99.90;;;;;;4999497;28;20391;-87
2022/10/11 10:59:51;;;;;;;4.53;1.60;;;15.80;99.90;;;;;;4894475;29;20393;-87
2022/10/11 11:02:30;;;;;;;2.90;1.60;;;15.80;99.90;;;;;;4894033;29;20398;-87
2022/10/11 11:05:17;;;;;;;3.95;1.60;;;15.80;99.90;;;;;;4895048;29;20393;-87
2022/10/11 11:08:14;;;;;;;3.85;1.50;;;15.80;99.90;;;;;;4888297;29;20399;-87
2022/10/11 11:11:07;;;;;;;4.35;1.60;;;15.80;99.90;;;;;;4889143;29;20806;-87
2022/10/11 11:13:39;;;;;;;5.03;1.70;;;15.80;99.90;;;;;;4820623;29;20407;-87
2022/10/11 11:16:32;;;;;;;4.72;1.70;;;15.70;99.90;;;;;;4819941;29;20426;-87
2022/10/11 11:19:25;;;;;;;4.25;1.50;;;15.70;99.90;;;;;;4803907;29;20458;-87
2022/10/11 11:22:14;;;;;;;4.53;1.50;;;15.60;99.90;;;;;;4782981;29;20443;-86
2022/10/11 11:24:41;;;;;;;3.60;1.47;;;15.70;99.90;;;;;;4786854;29;20402;-87
2022/10/11 11:27:26;;;;;;;3.75;1.63;;;15.60;99.90;;;;;;4801495;29;20389;-87
2022/10/11 11:30:03;;;;;;;4.93;1.60;;;15.60;99.90;;;;;;4801474;29;20429;-86
2022/10/11 11:32:48;;;;;;;4.78;1.85;;;15.60;99.90;;;;;;4801732;29;20402;-86
2022/10/11 11:35:53;;;;;;;5.17;1.63;;;15.60;99.90;;;;;;4852246;29;20555;-87
2022/10/11 11:38:24;;;;;;;4.80;1.77;;;15.60;99.90;;;;;;4858185;29;20395;-86
2022/10/11 11:41:04;;;;;;;4.93;1.70;;;15.50;99.90;;;;;;4874820;29;20423;-87
2022/10/11 11:43:51;;;;;;;4.65;1.60;;;15.50;99.90;;;;;;4858033;29;20428;-87
2022/10/11 11:46:23;;;;;;;4.25;1.60;;;15.40;99.90;;;;;;4858843;29;20399;-86
2022/10/11 11:48:53;;;;;;;3.88;1.60;;;15.40;99.90;;;;;;4874760;29;20427;-87
2022/10/11 11:51:40;;;;;;;6.65;1.70;;;15.30;99.90;;;;;;4904370;29;20812;-88
2022/10/11 11:54:29;;;;;;;6.03;1.80;;;15.30;99.90;;;;;;4912040;29;20399;-88
2022/10/11 11:57:20;;;;;;;4.75;1.60;;;15.20;99.90;;;;;;4912133;29;20459;-88
2022/10/11 11:59:57;;;;;;;7.10;1.65;;;15.20;99.90;;;;;;4948568;28;20764;-87
2022/10/11 12:02:36;;;;;;;5.10;1.67;;;15.10;99.90;;;;;;4942329;29;20459;-88
2022/10/11 12:05:07;;;;;;;4.53;1.90;;;15.10;99.90;;;;;;4950696;28;20416;-87
2022/10/11 12:07:47;;;;;;;5.82;1.80;;;15.10;99.90;;;;;;4951010;28;20395;-87
2022/10/11 12:10:23;;;;;;;6.03;2.03;;;15.00;99.90;;;;;;4951076;28;20443;-87
2022/10/11 12:13:20;;;;;;;5.10;1.80;;;15.00;99.90;;;;;;4951127;28;20483;-87
2022/10/11 12:16:06;;;;;;;4.38;1.63;;;15.00;99.90;;;;;;5038534;28;20394;-87
2022/10/11 12:18:45;;;;;;;4.57;1.90;;;14.90;99.90;;;;;;5071396;28;20373;-88
2022/10/11 12:21:21;;;;;;;3.92;1.65;;;14.80;99.90;;;;;;5053715;28;20382;-88
2022/10/11 12:23:51;;;;;;;4.40;1.80;;;14.70;99.90;;;;;;5053256;28;20386;-88
2022/10/11 12:26:45;;;;;;;5.50;2.05;;;14.70;99.90;;;;;;5062315;28;20374;-89
2022/10/11 12:29:37;;;;;;;4.30;1.98;;;14.50;99.90;;;;;;5071060;28;20517;-88
2022/10/11 12:32:04;;;;;;;5.63;2.10;;;14.40;99.90;;;;;;5069841;28;20398;-89
2022/10/11 12:34:44;;;;;;;4.75;2.00;;;14.30;99.90;;;;;;5073837;28;20378;-89
2022/10/11 12:37:31;;;;;;;4.32;2.00;;;14.30;99.90;;;;;;5013075;28;20395;-87
2022/10/11 12:39:59;;;;;;;4.38;1.98;;;14.20;99.90;;;;;;4932686;29;20910;-88
2022/10/11 12:42:32;;;;;;;5.30;2.08;;;14.10;99.90;;;;;;4940341;29;20496;-88
2022/10/11 12:45:19;;;;;;;6.18;2.10;;;14.10;99.90;;;;;;4943598;29;20409;-89
2022/10/11 12:48:13;;;;;;;4.70;1.85;;;14.00;99.90;;;;;;4893482;29;20430;-89
2022/10/11 12:51:05;;;;;;;5.45;2.15;;;13.90;99.90;;;;;;4897140;29;20821;-88
2022/10/11 12:53:48;;;;;;;4.35;1.90;;;13.70;99.90;;;;;;4901096;29;20419;-88
2022/10/11 12:56:35;;;;;;;6.40;2.10;;;13.60;99.90;;;;;;4887507;29;20405;-87
2022/10/11 12:59:05;;;;;;;6.60;2.40;;;13.50;99.90;;;;;;4885430;29;20417;-87
2022/10/11 13:01:46;;;;;;;5.18;2.10;;;13.40;99.90;;;;;;4896302;29;20441;-88
2022/10/11 13:04:16;;;;;;;4.18;2.10;;;13.30;99.90;;;;;;4896485;29;20446;-87
2022/10/11 13:06:55;;;;;;;6.05;2.10;;;13.20;99.90;;;;;;4903427;29;20501;-88
2022/10/11 13:09:39;;;;;;;5.85;2.20;;;13.10;99.90;;;;;;4896950;29;20404;-88
2022/10/11 13:12:14;;;;;;;6.07;2.50;;;13.10;99.90;;;;;;4896577;29;20397;-88
2022/10/11 13:15:18;;;;;;;6.68;2.40;;;13.00;99.90;;;;;;4929433;29;20412;-88
2022/10/11 13:17:47;;;;;;;8.15;2.30;;;12.90;99.90;;;;;;4939692;28;20393;-89
2022/10/11 13:20:17;;;;;;;6.82;2.42;;;12.80;99.90;;;;;;4923150;29;20472;-89